sensor_id;sensor_type;location;lat;lon;timestamp;P1;durP1;ratioP1;P2;durP2;ratioP2
80647;SDS011;70012;0.000;0.000;2023-12-14T00:02:09;10.82;;;5.50;;
80647;SDS011;70012;0.000;0.000;2023-12-14T00:04:36;9.52;;;5.43;;
80647;SDS011;70012;0.000;0.000;2023-12-14T00:07:02;10.32;;;5.88;;
80647;SDS011;70012;0.000;0.000;2023-12-14T00:09:29;9.73;;;6.30;;
80647;SDS011;70012;0.000;0.000;2023-12-14T00:11:56;13.82;;;5.90;;
80647;SDS011;70012;0.000;0.000;2023-12-14T00:14:23;10.35;;;5.85;;
80647;SDS011;70012;0.000;0.000;2023-12-14T00:16:49;9.85;;;5.13;;
80647;SDS011;70012;0.000;0.000;2023-12-14T00:19:16;9.40;;;5.80;;
80647;SDS011;70012;0.000;0.000;2023-12-14T00:21:43;11.93;;;5.85;;
80647;SDS011;70012;0.000;0.000;2023-12-14T00:24:10;11.75;;;5.97;;
80647;SDS011;70012;0.000;0.000;2023-12-14T00:26:37;15.55;;;6.75;;
80647;SDS011;70012;0.000;0.000;2023-12-14T00:29:04;13.27;;;7.03;;
80647;SDS011;70012;0.000;0.000;2023-12-14T00:31:31;12.85;;;7.15;;
80647;SDS011;70012;0.000;0.000;2023-12-14T00:36:24;15.75;;;6.50;;
80647;SDS011;70012;0.000;0.000;2023-12-14T00:38:51;15.68;;;8.13;;
80647;SDS011;70012;0.000;0.000;2023-12-14T00:41:18;18.85;;;9.07;;
80647;SDS011;70012;0.000;0.000;2023-12-14T00:43:45;17.83;;;9.25;;
80647;SDS011;70012;0.000;0.000;2023-12-14T00:46:11;19.88;;;10.02;;
80647;SDS011;70012;0.000;0.000;2023-12-14T00:51:07;20.35;;;8.23;;
80647;SDS011;70012;0.000;0.000;2023-12-14T00:53:35;22.13;;;9.93;;
80647;SDS011;70012;0.000;0.000;2023-12-14T00:56:07;25.65;;;11.27;;
80647;SDS011;70012;0.000;0.000;2023-12-14T00:58:36;19.02;;;10.00;;
80647;SDS011;70012;0.000;0.000;2023-12-14T01:01:03;21.90;;;10.65;;
80647;SDS011;70012;0.000;0.000;2023-12-14T01:03:31;22.05;;;10.43;;
80647;SDS011;70012;0.000;0.000;2023-12-14T01:05:59;27.55;;;11.20;;
80647;SDS011;70012;0.000;0.000;2023-12-14T01:10:54;22.13;;;10.77;;
80647;SDS011;70012;0.000;0.000;2023-12-14T01:13:23;24.45;;;11.02;;
80647;SDS011;70012;0.000;0.000;2023-12-14T01:15:49;26.13;;;12.10;;
80647;SDS011;70012;0.000;0.000;2023-12-14T01:20:43;29.77;;;11.70;;
80647;SDS011;70012;0.000;0.000;2023-12-14T01:25:37;27.30;;;11.65;;
80647;SDS011;70012;0.000;0.000;2023-12-14T01:28:04;25.92;;;13.57;;
80647;SDS011;70012;0.000;0.000;2023-12-14T01:30:31;27.08;;;13.13;;
80647;SDS011;70012;0.000;0.000;2023-12-14T01:32:57;29.08;;;13.65;;
80647;SDS011;70012;0.000;0.000;2023-12-14T01:35:24;35.15;;;14.65;;
80647;SDS011;70012;0.000;0.000;2023-12-14T01:37:51;34.67;;;14.63;;
80647;SDS011;70012;0.000;0.000;2023-12-14T01:40:20;30.05;;;14.02;;
80647;SDS011;70012;0.000;0.000;2023-12-14T01:42:47;33.38;;;14.30;;
80647;SDS011;70012;0.000;0.000;2023-12-14T01:45:14;39.42;;;15.70;;
80647;SDS011;70012;0.000;0.000;2023-12-14T01:47:44;39.13;;;16.92;;
80647;SDS011;70012;0.000;0.000;2023-12-14T01:50:11;39.45;;;15.52;;
80647;SDS011;70012;0.000;0.000;2023-12-14T01:55:05;30.92;;;13.85;;
80647;SDS011;70012;0.000;0.000;2023-12-14T01:57:32;34.72;;;14.60;;
80647;SDS011;70012;0.000;0.000;2023-12-14T01:59:59;39.15;;;15.93;;
80647;SDS011;70012;0.000;0.000;2023-12-14T02:02:25;35.42;;;15.15;;
80647;SDS011;70012;0.000;0.000;2023-12-14T02:04:52;43.42;;;16.45;;
80647;SDS011;70012;0.000;0.000;2023-12-14T02:09:45;33.90;;;15.32;;
80647;SDS011;70012;0.000;0.000;2023-12-14T02:12:12;30.10;;;13.70;;
80647;SDS011;70012;0.000;0.000;2023-12-14T02:14:40;33.58;;;14.65;;
80647;SDS011;70012;0.000;0.000;2023-12-14T02:19:36;36.65;;;15.20;;
80647;SDS011;70012;0.000;0.000;2023-12-14T02:22:03;30.98;;;14.45;;
80647;SDS011;70012;0.000;0.000;2023-12-14T02:24:30;41.40;;;15.57;;
80647;SDS011;70012;0.000;0.000;2023-12-14T02:26:57;36.47;;;16.52;;
80647;SDS011;70012;0.000;0.000;2023-12-14T02:29:29;38.50;;;16.55;;
80647;SDS011;70012;0.000;0.000;2023-12-14T02:31:56;36.00;;;16.02;;
80647;SDS011;70012;0.000;0.000;2023-12-14T02:34:24;37.25;;;16.75;;
80647;SDS011;70012;0.000;0.000;2023-12-14T02:36:52;40.88;;;16.80;;
80647;SDS011;70012;0.000;0.000;2023-12-14T02:39:19;39.00;;;15.93;;
80647;SDS011;70012;0.000;0.000;2023-12-14T02:41:49;42.97;;;16.70;;
80647;SDS011;70012;0.000;0.000;2023-12-14T02:44:15;40.97;;;16.73;;
80647;SDS011;70012;0.000;0.000;2023-12-14T02:46:45;41.38;;;17.50;;
80647;SDS011;70012;0.000;0.000;2023-12-14T02:49:12;41.00;;;17.02;;
80647;SDS011;70012;0.000;0.000;2023-12-14T02:54:06;35.80;;;16.15;;
80647;SDS011;70012;0.000;0.000;2023-12-14T02:56:33;41.40;;;17.38;;
80647;SDS011;70012;0.000;0.000;2023-12-14T02:59:00;39.78;;;17.17;;
80647;SDS011;70012;0.000;0.000;2023-12-14T03:01:27;39.08;;;18.40;;
80647;SDS011;70012;0.000;0.000;2023-12-14T03:03:54;42.13;;;16.77;;
80647;SDS011;70012;0.000;0.000;2023-12-14T03:06:21;42.95;;;17.63;;
80647;SDS011;70012;0.000;0.000;2023-12-14T03:08:48;45.40;;;19.95;;
80647;SDS011;70012;0.000;0.000;2023-12-14T03:11:21;49.35;;;18.52;;
80647;SDS011;70012;0.000;0.000;2023-12-14T03:13:50;44.38;;;19.17;;
80647;SDS011;70012;0.000;0.000;2023-12-14T03:16:18;52.53;;;20.05;;
80647;SDS011;70012;0.000;0.000;2023-12-14T03:18:46;47.65;;;20.10;;
80647;SDS011;70012;0.000;0.000;2023-12-14T03:21:19;48.10;;;19.55;;
80647;SDS011;70012;0.000;0.000;2023-12-14T03:23:46;49.80;;;19.52;;
80647;SDS011;70012;0.000;0.000;2023-12-14T03:26:14;56.65;;;20.25;;
80647;SDS011;70012;0.000;0.000;2023-12-14T03:28:41;45.72;;;19.38;;
80647;SDS011;70012;0.000;0.000;2023-12-14T03:31:10;50.22;;;18.95;;
80647;SDS011;70012;0.000;0.000;2023-12-14T03:33:38;49.90;;;19.15;;
80647;SDS011;70012;0.000;0.000;2023-12-14T03:36:05;49.78;;;19.98;;
80647;SDS011;70012;0.000;0.000;2023-12-14T03:38:33;46.30;;;19.13;;
80647;SDS011;70012;0.000;0.000;2023-12-14T03:41:00;41.55;;;16.95;;
80647;SDS011;70012;0.000;0.000;2023-12-14T03:43:27;36.67;;;16.48;;
80647;SDS011;70012;0.000;0.000;2023-12-14T03:45:54;34.92;;;14.63;;
80647;SDS011;70012;0.000;0.000;2023-12-14T03:48:20;45.05;;;17.83;;
80647;SDS011;70012;0.000;0.000;2023-12-14T03:50:47;39.45;;;16.02;;
80647;SDS011;70012;0.000;0.000;2023-12-14T03:53:14;41.20;;;16.38;;
80647;SDS011;70012;0.000;0.000;2023-12-14T03:58:08;37.25;;;15.30;;
80647;SDS011;70012;0.000;0.000;2023-12-14T04:00:34;37.33;;;16.20;;
80647;SDS011;70012;0.000;0.000;2023-12-14T04:03:01;36.00;;;16.38;;
80647;SDS011;70012;0.000;0.000;2023-12-14T04:05:28;33.88;;;16.52;;
80647;SDS011;70012;0.000;0.000;2023-12-14T04:07:54;33.33;;;15.93;;
80647;SDS011;70012;0.000;0.000;2023-12-14T04:10:21;34.25;;;18.02;;
80647;SDS011;70012;0.000;0.000;2023-12-14T04:12:48;32.60;;;16.10;;
80647;SDS011;70012;0.000;0.000;2023-12-14T04:15:14;35.00;;;16.17;;
80647;SDS011;70012;0.000;0.000;2023-12-14T04:17:41;38.63;;;16.63;;
80647;SDS011;70012;0.000;0.000;2023-12-14T04:20:10;34.40;;;16.30;;
80647;SDS011;70012;0.000;0.000;2023-12-14T04:22:39;32.97;;;15.18;;
80647;SDS011;70012;0.000;0.000;2023-12-14T04:25:06;29.75;;;15.30;;
80647;SDS011;70012;0.000;0.000;2023-12-14T04:30:00;34.42;;;14.65;;
80647;SDS011;70012;0.000;0.000;2023-12-14T04:32:27;30.23;;;13.70;;
80647;SDS011;70012;0.000;0.000;2023-12-14T04:34:54;37.35;;;16.17;;
80647;SDS011;70012;0.000;0.000;2023-12-14T04:37:20;30.50;;;15.90;;
80647;SDS011;70012;0.000;0.000;2023-12-14T04:39:47;31.15;;;15.18;;
80647;SDS011;70012;0.000;0.000;2023-12-14T04:42:14;33.13;;;15.25;;
80647;SDS011;70012;0.000;0.000;2023-12-14T04:44:42;27.55;;;13.63;;
80647;SDS011;70012;0.000;0.000;2023-12-14T04:47:09;38.80;;;16.38;;
80647;SDS011;70012;0.000;0.000;2023-12-14T04:49:35;30.52;;;14.57;;
80647;SDS011;70012;0.000;0.000;2023-12-14T04:52:02;32.88;;;14.88;;
80647;SDS011;70012;0.000;0.000;2023-12-14T04:54:29;34.08;;;15.75;;
80647;SDS011;70012;0.000;0.000;2023-12-14T04:59:23;34.08;;;15.35;;
80647;SDS011;70012;0.000;0.000;2023-12-14T05:01:49;34.47;;;15.23;;
80647;SDS011;70012;0.000;0.000;2023-12-14T05:04:16;35.42;;;15.43;;
80647;SDS011;70012;0.000;0.000;2023-12-14T05:06:43;35.45;;;16.50;;
80647;SDS011;70012;0.000;0.000;2023-12-14T05:09:10;37.42;;;15.95;;
80647;SDS011;70012;0.000;0.000;2023-12-14T05:11:39;35.22;;;17.58;;
80647;SDS011;70012;0.000;0.000;2023-12-14T05:14:06;42.55;;;17.20;;
80647;SDS011;70012;0.000;0.000;2023-12-14T05:16:33;39.42;;;17.90;;
80647;SDS011;70012;0.000;0.000;2023-12-14T05:19:00;44.38;;;16.60;;
80647;SDS011;70012;0.000;0.000;2023-12-14T05:21:27;46.00;;;19.10;;
80647;SDS011;70012;0.000;0.000;2023-12-14T05:23:54;42.50;;;18.08;;
80647;SDS011;70012;0.000;0.000;2023-12-14T05:26:22;42.60;;;18.08;;
80647;SDS011;70012;0.000;0.000;2023-12-14T05:28:49;48.85;;;21.02;;
80647;SDS011;70012;0.000;0.000;2023-12-14T05:33:43;47.00;;;18.63;;
80647;SDS011;70012;0.000;0.000;2023-12-14T05:36:10;47.05;;;17.67;;
80647;SDS011;70012;0.000;0.000;2023-12-14T05:38:41;43.38;;;17.88;;
80647;SDS011;70012;0.000;0.000;2023-12-14T05:41:08;45.20;;;17.75;;
80647;SDS011;70012;0.000;0.000;2023-12-14T05:46:03;38.42;;;15.05;;
80647;SDS011;70012;0.000;0.000;2023-12-14T05:48:30;38.67;;;14.60;;
80647;SDS011;70012;0.000;0.000;2023-12-14T05:50:57;31.23;;;13.45;;
80647;SDS011;70012;0.000;0.000;2023-12-14T05:53:24;31.73;;;13.50;;
80647;SDS011;70012;0.000;0.000;2023-12-14T05:55:50;36.25;;;15.48;;
80647;SDS011;70012;0.000;0.000;2023-12-14T05:58:17;37.40;;;14.57;;
80647;SDS011;70012;0.000;0.000;2023-12-14T06:00:44;33.53;;;15.65;;
80647;SDS011;70012;0.000;0.000;2023-12-14T06:05:38;35.17;;;15.00;;
80647;SDS011;70012;0.000;0.000;2023-12-14T06:08:05;34.20;;;15.32;;
80647;SDS011;70012;0.000;0.000;2023-12-14T06:12:59;35.50;;;14.63;;
80647;SDS011;70012;0.000;0.000;2023-12-14T06:15:25;34.53;;;15.20;;
80647;SDS011;70012;0.000;0.000;2023-12-14T06:17:52;35.05;;;14.52;;
80647;SDS011;70012;0.000;0.000;2023-12-14T06:22:46;40.72;;;16.88;;
80647;SDS011;70012;0.000;0.000;2023-12-14T06:25:12;38.40;;;17.27;;
80647;SDS011;70012;0.000;0.000;2023-12-14T06:27:40;43.78;;;17.92;;
80647;SDS011;70012;0.000;0.000;2023-12-14T06:30:08;43.08;;;17.00;;
80647;SDS011;70012;0.000;0.000;2023-12-14T06:32:37;38.38;;;16.92;;
80647;SDS011;70012;0.000;0.000;2023-12-14T06:35:04;40.50;;;18.05;;
80647;SDS011;70012;0.000;0.000;2023-12-14T06:37:32;43.67;;;18.40;;
80647;SDS011;70012;0.000;0.000;2023-12-14T06:42:26;42.97;;;18.35;;
80647;SDS011;70012;0.000;0.000;2023-12-14T06:44:54;39.63;;;16.58;;
80647;SDS011;70012;0.000;0.000;2023-12-14T06:47:21;37.42;;;17.25;;
80647;SDS011;70012;0.000;0.000;2023-12-14T06:49:47;39.83;;;17.88;;
80647;SDS011;70012;0.000;0.000;2023-12-14T06:54:41;35.83;;;15.23;;
80647;SDS011;70012;0.000;0.000;2023-12-14T06:57:08;30.02;;;13.52;;
80647;SDS011;70012;0.000;0.000;2023-12-14T06:59:36;31.58;;;13.25;;
80647;SDS011;70012;0.000;0.000;2023-12-14T07:02:03;30.40;;;12.85;;
80647;SDS011;70012;0.000;0.000;2023-12-14T07:04:30;29.33;;;13.07;;
80647;SDS011;70012;0.000;0.000;2023-12-14T07:06:57;26.98;;;11.15;;
80647;SDS011;70012;0.000;0.000;2023-12-14T07:09:25;28.38;;;11.43;;
80647;SDS011;70012;0.000;0.000;2023-12-14T07:11:52;29.67;;;10.93;;
80647;SDS011;70012;0.000;0.000;2023-12-14T07:16:49;23.77;;;12.02;;
80647;SDS011;70012;0.000;0.000;2023-12-14T07:19:16;23.05;;;11.57;;
80647;SDS011;70012;0.000;0.000;2023-12-14T07:21:43;26.08;;;11.38;;
80647;SDS011;70012;0.000;0.000;2023-12-14T07:24:10;26.58;;;11.10;;
80647;SDS011;70012;0.000;0.000;2023-12-14T07:26:37;27.80;;;11.00;;
80647;SDS011;70012;0.000;0.000;2023-12-14T07:29:03;22.45;;;9.73;;
80647;SDS011;70012;0.000;0.000;2023-12-14T07:31:30;23.73;;;10.48;;
80647;SDS011;70012;0.000;0.000;2023-12-14T07:33:57;23.63;;;10.25;;
80647;SDS011;70012;0.000;0.000;2023-12-14T07:36:25;23.23;;;10.63;;
80647;SDS011;70012;0.000;0.000;2023-12-14T07:38:52;22.10;;;9.93;;
80647;SDS011;70012;0.000;0.000;2023-12-14T07:41:23;30.52;;;12.13;;
80647;SDS011;70012;0.000;0.000;2023-12-14T07:43:55;27.88;;;11.35;;
80647;SDS011;70012;0.000;0.000;2023-12-14T07:46:23;23.08;;;9.85;;
80647;SDS011;70012;0.000;0.000;2023-12-14T07:48:50;26.63;;;11.43;;
80647;SDS011;70012;0.000;0.000;2023-12-14T07:51:24;26.02;;;10.98;;
80647;SDS011;70012;0.000;0.000;2023-12-14T07:53:51;24.98;;;9.98;;
80647;SDS011;70012;0.000;0.000;2023-12-14T07:56:18;27.15;;;11.45;;
80647;SDS011;70012;0.000;0.000;2023-12-14T07:58:45;23.58;;;10.32;;
80647;SDS011;70012;0.000;0.000;2023-12-14T08:03:40;26.55;;;11.65;;
80647;SDS011;70012;0.000;0.000;2023-12-14T08:06:07;21.30;;;9.52;;
80647;SDS011;70012;0.000;0.000;2023-12-14T08:08:35;29.23;;;11.98;;
80647;SDS011;70012;0.000;0.000;2023-12-14T08:11:04;27.20;;;10.80;;
80647;SDS011;70012;0.000;0.000;2023-12-14T08:13:31;29.05;;;10.73;;
80647;SDS011;70012;0.000;0.000;2023-12-14T08:15:58;26.00;;;11.27;;
80647;SDS011;70012;0.000;0.000;2023-12-14T08:18:25;24.70;;;11.15;;
80647;SDS011;70012;0.000;0.000;2023-12-14T08:20:52;25.42;;;11.52;;
80647;SDS011;70012;0.000;0.000;2023-12-14T08:23:21;22.27;;;9.32;;
80647;SDS011;70012;0.000;0.000;2023-12-14T08:25:48;24.27;;;10.55;;
80647;SDS011;70012;0.000;0.000;2023-12-14T08:28:15;18.58;;;9.00;;
80647;SDS011;70012;0.000;0.000;2023-12-14T08:30:42;24.83;;;10.60;;
80647;SDS011;70012;0.000;0.000;2023-12-14T08:33:09;24.67;;;9.82;;
80647;SDS011;70012;0.000;0.000;2023-12-14T08:38:03;17.00;;;7.95;;
80647;SDS011;70012;0.000;0.000;2023-12-14T08:40:30;18.00;;;8.75;;
80647;SDS011;70012;0.000;0.000;2023-12-14T08:42:57;20.67;;;8.90;;
80647;SDS011;70012;0.000;0.000;2023-12-14T08:45:24;20.27;;;8.73;;
80647;SDS011;70012;0.000;0.000;2023-12-14T08:47:50;21.42;;;8.68;;
80647;SDS011;70012;0.000;0.000;2023-12-14T08:50:17;18.52;;;8.88;;
80647;SDS011;70012;0.000;0.000;2023-12-14T08:52:44;21.15;;;8.50;;
80647;SDS011;70012;0.000;0.000;2023-12-14T08:57:39;18.38;;;8.07;;
80647;SDS011;70012;0.000;0.000;2023-12-14T09:00:06;16.95;;;8.10;;
80647;SDS011;70012;0.000;0.000;2023-12-14T09:02:33;20.02;;;7.85;;
80647;SDS011;70012;0.000;0.000;2023-12-14T09:05:01;20.20;;;9.07;;
80647;SDS011;70012;0.000;0.000;2023-12-14T09:07:28;18.92;;;8.70;;
80647;SDS011;70012;0.000;0.000;2023-12-14T09:09:55;16.35;;;7.43;;
80647;SDS011;70012;0.000;0.000;2023-12-14T09:12:22;19.23;;;8.05;;
80647;SDS011;70012;0.000;0.000;2023-12-14T09:14:49;19.08;;;7.63;;
80647;SDS011;70012;0.000;0.000;2023-12-14T09:17:15;18.55;;;8.27;;
80647;SDS011;70012;0.000;0.000;2023-12-14T09:19:42;20.75;;;8.45;;
80647;SDS011;70012;0.000;0.000;2023-12-14T09:22:10;19.00;;;7.45;;
80647;SDS011;70012;0.000;0.000;2023-12-14T09:24:37;18.67;;;8.52;;
80647;SDS011;70012;0.000;0.000;2023-12-14T09:27:04;20.08;;;7.05;;
80647;SDS011;70012;0.000;0.000;2023-12-14T09:31:57;16.45;;;7.28;;
80647;SDS011;70012;0.000;0.000;2023-12-14T09:34:25;18.55;;;7.88;;
80647;SDS011;70012;0.000;0.000;2023-12-14T09:36:51;16.55;;;7.18;;
80647;SDS011;70012;0.000;0.000;2023-12-14T09:39:22;18.20;;;7.90;;
80647;SDS011;70012;0.000;0.000;2023-12-14T09:41:50;18.27;;;8.43;;
80647;SDS011;70012;0.000;0.000;2023-12-14T09:44:17;18.13;;;8.80;;
80647;SDS011;70012;0.000;0.000;2023-12-14T09:49:15;24.70;;;9.07;;
80647;SDS011;70012;0.000;0.000;2023-12-14T09:51:43;19.98;;;8.43;;
80647;SDS011;70012;0.000;0.000;2023-12-14T09:54:10;19.20;;;9.48;;
80647;SDS011;70012;0.000;0.000;2023-12-14T09:56:44;18.17;;;9.68;;
80647;SDS011;70012;0.000;0.000;2023-12-14T09:59:12;21.05;;;9.43;;
80647;SDS011;70012;0.000;0.000;2023-12-14T10:01:39;18.83;;;8.65;;
80647;SDS011;70012;0.000;0.000;2023-12-14T10:04:10;19.08;;;9.48;;
80647;SDS011;70012;0.000;0.000;2023-12-14T10:06:39;19.10;;;8.90;;
80647;SDS011;70012;0.000;0.000;2023-12-14T10:09:07;21.77;;;9.05;;
80647;SDS011;70012;0.000;0.000;2023-12-14T10:11:40;17.83;;;8.00;;
80647;SDS011;70012;0.000;0.000;2023-12-14T10:14:17;19.55;;;8.52;;
80647;SDS011;70012;0.000;0.000;2023-12-14T10:16:46;16.38;;;8.63;;
80647;SDS011;70012;0.000;0.000;2023-12-14T10:19:14;17.55;;;8.05;;
80647;SDS011;70012;0.000;0.000;2023-12-14T10:21:43;17.42;;;8.50;;
80647;SDS011;70012;0.000;0.000;2023-12-14T10:24:10;19.40;;;8.40;;
80647;SDS011;70012;0.000;0.000;2023-12-14T10:26:38;17.77;;;7.72;;
80647;SDS011;70012;0.000;0.000;2023-12-14T10:29:07;19.77;;;9.60;;
80647;SDS011;70012;0.000;0.000;2023-12-14T10:31:37;17.70;;;8.30;;
80647;SDS011;70012;0.000;0.000;2023-12-14T10:34:06;17.98;;;8.35;;
80647;SDS011;70012;0.000;0.000;2023-12-14T10:36:33;22.50;;;9.05;;
80647;SDS011;70012;0.000;0.000;2023-12-14T10:39:02;18.00;;;8.38;;
80647;SDS011;70012;0.000;0.000;2023-12-14T10:41:30;21.23;;;9.98;;
80647;SDS011;70012;0.000;0.000;2023-12-14T10:44:04;24.38;;;10.65;;
80647;SDS011;70012;0.000;0.000;2023-12-14T10:46:58;23.10;;;9.93;;
80647;SDS011;70012;0.000;0.000;2023-12-14T10:49:38;20.30;;;10.07;;
80647;SDS011;70012;0.000;0.000;2023-12-14T10:52:07;23.35;;;10.13;;
80647;SDS011;70012;0.000;0.000;2023-12-14T10:54:49;24.77;;;10.32;;
80647;SDS011;70012;0.000;0.000;2023-12-14T10:59:49;22.17;;;9.43;;
80647;SDS011;70012;0.000;0.000;2023-12-14T11:02:16;21.95;;;9.60;;
80647;SDS011;70012;0.000;0.000;2023-12-14T11:05:02;24.80;;;11.63;;
80647;SDS011;70012;0.000;0.000;2023-12-14T11:07:55;27.00;;;10.45;;
80647;SDS011;70012;0.000;0.000;2023-12-14T11:10:27;23.15;;;10.68;;
80647;SDS011;70012;0.000;0.000;2023-12-14T11:12:57;21.20;;;9.52;;
80647;SDS011;70012;0.000;0.000;2023-12-14T11:15:29;21.33;;;9.48;;
80647;SDS011;70012;0.000;0.000;2023-12-14T11:20:50;21.25;;;9.82;;
80647;SDS011;70012;0.000;0.000;2023-12-14T11:26:06;22.00;;;8.80;;
80647;SDS011;70012;0.000;0.000;2023-12-14T11:28:39;22.45;;;10.30;;
80647;SDS011;70012;0.000;0.000;2023-12-14T11:31:10;23.30;;;9.98;;
80647;SDS011;70012;0.000;0.000;2023-12-14T11:33:38;21.88;;;10.20;;
80647;SDS011;70012;0.000;0.000;2023-12-14T11:36:10;19.83;;;9.43;;
80647;SDS011;70012;0.000;0.000;2023-12-14T11:38:39;20.42;;;11.15;;
80647;SDS011;70012;0.000;0.000;2023-12-14T11:41:11;25.98;;;9.95;;
80647;SDS011;70012;0.000;0.000;2023-12-14T11:43:43;20.67;;;10.10;;
80647;SDS011;70012;0.000;0.000;2023-12-14T11:46:11;22.45;;;10.70;;
80647;SDS011;70012;0.000;0.000;2023-12-14T11:48:40;30.45;;;12.52;;
80647;SDS011;70012;0.000;0.000;2023-12-14T11:51:07;23.35;;;11.20;;
80647;SDS011;70012;0.000;0.000;2023-12-14T11:53:35;21.35;;;10.35;;
80647;SDS011;70012;0.000;0.000;2023-12-14T11:56:05;21.05;;;10.30;;
80647;SDS011;70012;0.000;0.000;2023-12-14T11:58:32;20.95;;;9.63;;
80647;SDS011;70012;0.000;0.000;2023-12-14T12:04:08;15.80;;;8.38;;
80647;SDS011;70012;0.000;0.000;2023-12-14T12:06:37;16.83;;;8.00;;
80647;SDS011;70012;0.000;0.000;2023-12-14T12:09:03;18.80;;;9.18;;
80647;SDS011;70012;0.000;0.000;2023-12-14T12:11:35;16.27;;;7.93;;
80647;SDS011;70012;0.000;0.000;2023-12-14T12:14:02;17.67;;;8.73;;
80647;SDS011;70012;0.000;0.000;2023-12-14T12:16:33;17.95;;;8.88;;
80647;SDS011;70012;0.000;0.000;2023-12-14T12:19:00;16.00;;;8.50;;
80647;SDS011;70012;0.000;0.000;2023-12-14T12:21:27;13.45;;;7.55;;
80647;SDS011;70012;0.000;0.000;2023-12-14T12:23:54;17.73;;;8.68;;
80647;SDS011;70012;0.000;0.000;2023-12-14T12:26:20;17.92;;;9.23;;
80647;SDS011;70012;0.000;0.000;2023-12-14T12:28:47;13.93;;;7.18;;
80647;SDS011;70012;0.000;0.000;2023-12-14T12:31:15;13.57;;;7.50;;
80647;SDS011;70012;0.000;0.000;2023-12-14T12:33:42;16.77;;;8.93;;
80647;SDS011;70012;0.000;0.000;2023-12-14T12:36:09;15.18;;;7.15;;
80647;SDS011;70012;0.000;0.000;2023-12-14T12:38:36;14.13;;;8.10;;
80647;SDS011;70012;0.000;0.000;2023-12-14T12:41:07;17.00;;;7.47;;
80647;SDS011;70012;0.000;0.000;2023-12-14T12:43:35;18.95;;;9.25;;
80647;SDS011;70012;0.000;0.000;2023-12-14T12:46:02;17.33;;;8.75;;
80647;SDS011;70012;0.000;0.000;2023-12-14T12:48:30;15.88;;;8.40;;
80647;SDS011;70012;0.000;0.000;2023-12-14T12:50:57;17.58;;;9.32;;
80647;SDS011;70012;0.000;0.000;2023-12-14T12:53:24;17.02;;;9.02;;
80647;SDS011;70012;0.000;0.000;2023-12-14T12:55:51;17.02;;;8.15;;
80647;SDS011;70012;0.000;0.000;2023-12-14T12:58:18;17.30;;;8.70;;
80647;SDS011;70012;0.000;0.000;2023-12-14T13:00:45;19.13;;;9.48;;
80647;SDS011;70012;0.000;0.000;2023-12-14T13:03:11;18.20;;;8.68;;
80647;SDS011;70012;0.000;0.000;2023-12-14T13:05:39;18.20;;;9.55;;
80647;SDS011;70012;0.000;0.000;2023-12-14T13:08:06;17.15;;;9.05;;
80647;SDS011;70012;0.000;0.000;2023-12-14T13:10:33;17.13;;;8.75;;
80647;SDS011;70012;0.000;0.000;2023-12-14T13:13:23;20.17;;;9.63;;
80647;SDS011;70012;0.000;0.000;2023-12-14T13:15:50;19.58;;;10.25;;
80647;SDS011;70012;0.000;0.000;2023-12-14T13:18:17;20.52;;;9.85;;
80647;SDS011;70012;0.000;0.000;2023-12-14T13:23:11;17.88;;;8.93;;
80647;SDS011;70012;0.000;0.000;2023-12-14T13:25:38;17.23;;;8.77;;
80647;SDS011;70012;0.000;0.000;2023-12-14T13:28:06;22.45;;;10.25;;
80647;SDS011;70012;0.000;0.000;2023-12-14T13:30:33;20.33;;;10.00;;
80647;SDS011;70012;0.000;0.000;2023-12-14T13:33:00;17.08;;;8.70;;
80647;SDS011;70012;0.000;0.000;2023-12-14T13:35:27;17.23;;;9.82;;
80647;SDS011;70012;0.000;0.000;2023-12-14T13:37:55;14.45;;;7.82;;
80647;SDS011;70012;0.000;0.000;2023-12-14T13:40:22;15.75;;;9.57;;
80647;SDS011;70012;0.000;0.000;2023-12-14T13:42:49;18.10;;;9.02;;
80647;SDS011;70012;0.000;0.000;2023-12-14T13:45:31;15.18;;;8.38;;
80647;SDS011;70012;0.000;0.000;2023-12-14T13:47:58;16.98;;;8.25;;
80647;SDS011;70012;0.000;0.000;2023-12-14T13:50:26;18.00;;;8.23;;
80647;SDS011;70012;0.000;0.000;2023-12-14T13:52:55;15.52;;;8.13;;
80647;SDS011;70012;0.000;0.000;2023-12-14T13:55:22;15.32;;;7.25;;
80647;SDS011;70012;0.000;0.000;2023-12-14T13:57:50;14.18;;;7.00;;
80647;SDS011;70012;0.000;0.000;2023-12-14T14:00:17;14.10;;;7.22;;
80647;SDS011;70012;0.000;0.000;2023-12-14T14:02:45;12.80;;;6.57;;
80647;SDS011;70012;0.000;0.000;2023-12-14T14:05:13;11.68;;;6.25;;
80647;SDS011;70012;0.000;0.000;2023-12-14T14:07:41;13.88;;;6.90;;
80647;SDS011;70012;0.000;0.000;2023-12-14T14:10:09;13.98;;;6.47;;
80647;SDS011;70012;0.000;0.000;2023-12-14T14:12:36;11.30;;;6.22;;
80647;SDS011;70012;0.000;0.000;2023-12-14T14:17:31;12.90;;;5.40;;
80647;SDS011;70012;0.000;0.000;2023-12-14T14:19:58;11.85;;;6.15;;
80647;SDS011;70012;0.000;0.000;2023-12-14T14:22:25;12.50;;;6.75;;
80647;SDS011;70012;0.000;0.000;2023-12-14T14:24:52;11.63;;;6.57;;
80647;SDS011;70012;0.000;0.000;2023-12-14T14:27:19;10.80;;;6.32;;
80647;SDS011;70012;0.000;0.000;2023-12-14T14:29:46;11.80;;;6.40;;
80647;SDS011;70012;0.000;0.000;2023-12-14T14:32:13;10.77;;;5.43;;
80647;SDS011;70012;0.000;0.000;2023-12-14T14:34:42;11.48;;;6.18;;
80647;SDS011;70012;0.000;0.000;2023-12-14T14:37:09;12.60;;;6.68;;
80647;SDS011;70012;0.000;0.000;2023-12-14T14:39:35;11.23;;;5.65;;
80647;SDS011;70012;0.000;0.000;2023-12-14T14:42:06;10.68;;;6.22;;
80647;SDS011;70012;0.000;0.000;2023-12-14T14:44:33;12.80;;;6.65;;
80647;SDS011;70012;0.000;0.000;2023-12-14T14:47:04;12.50;;;6.07;;
80647;SDS011;70012;0.000;0.000;2023-12-14T14:49:30;12.30;;;6.15;;
80647;SDS011;70012;0.000;0.000;2023-12-14T14:51:57;14.40;;;7.05;;
80647;SDS011;70012;0.000;0.000;2023-12-14T14:54:24;14.52;;;6.47;;
80647;SDS011;70012;0.000;0.000;2023-12-14T14:56:51;18.13;;;7.78;;
80647;SDS011;70012;0.000;0.000;2023-12-14T14:59:18;14.45;;;7.65;;
80647;SDS011;70012;0.000;0.000;2023-12-14T15:01:45;12.35;;;6.80;;
80647;SDS011;70012;0.000;0.000;2023-12-14T15:04:13;16.45;;;7.90;;
80647;SDS011;70012;0.000;0.000;2023-12-14T15:06:40;13.50;;;7.03;;
80647;SDS011;70012;0.000;0.000;2023-12-14T15:09:06;15.30;;;7.97;;
80647;SDS011;70012;0.000;0.000;2023-12-14T15:11:36;16.98;;;8.25;;
80647;SDS011;70012;0.000;0.000;2023-12-14T15:14:02;17.92;;;9.32;;
80647;SDS011;70012;0.000;0.000;2023-12-14T15:16:29;16.70;;;8.20;;
80647;SDS011;70012;0.000;0.000;2023-12-14T15:18:56;15.30;;;7.78;;
80647;SDS011;70012;0.000;0.000;2023-12-14T15:21:22;13.93;;;7.07;;
80647;SDS011;70012;0.000;0.000;2023-12-14T15:23:49;15.68;;;7.70;;
80647;SDS011;70012;0.000;0.000;2023-12-14T15:26:16;15.75;;;7.00;;
80647;SDS011;70012;0.000;0.000;2023-12-14T15:31:09;14.00;;;8.63;;
80647;SDS011;70012;0.000;0.000;2023-12-14T15:33:36;20.10;;;8.77;;
80647;SDS011;70012;0.000;0.000;2023-12-14T15:36:03;16.10;;;8.45;;
80647;SDS011;70012;0.000;0.000;2023-12-14T15:38:33;16.52;;;7.95;;
80647;SDS011;70012;0.000;0.000;2023-12-14T15:41:01;17.65;;;8.32;;
80647;SDS011;70012;0.000;0.000;2023-12-14T15:43:29;19.05;;;8.35;;
80647;SDS011;70012;0.000;0.000;2023-12-14T15:45:59;17.55;;;7.82;;
80647;SDS011;70012;0.000;0.000;2023-12-14T15:48:25;16.17;;;8.18;;
80647;SDS011;70012;0.000;0.000;2023-12-14T15:50:52;17.90;;;9.07;;
80647;SDS011;70012;0.000;0.000;2023-12-14T15:53:19;18.75;;;8.85;;
80647;SDS011;70012;0.000;0.000;2023-12-14T15:55:47;16.35;;;8.48;;
80647;SDS011;70012;0.000;0.000;2023-12-14T15:58:15;16.88;;;8.20;;
80647;SDS011;70012;0.000;0.000;2023-12-14T16:00:42;18.33;;;8.40;;
80647;SDS011;70012;0.000;0.000;2023-12-14T16:03:08;16.67;;;8.35;;
80647;SDS011;70012;0.000;0.000;2023-12-14T16:05:35;15.20;;;7.55;;